Terminal Aerodrome Forecast
Issued by NWS Springfield, MO

Home | Current Version | Previous Version | Text Only | Print | Product List | Glossary On
Versions: 1 2 3 4 5 6 7 8 9 10 11 12 13 14 15 16 17 18 19 20 21 22
000
FTUS43 KSGF 022300
TAFSGF
TAF
KSGF 022320Z 0300/0324 14004KT P6SM FEW040 SCT250
     FM030900 15007KT 5SM BR SCT050 BKN150
     FM031400 17008KT P6SM FEW030 BKN100=

USA.gov is the U.S. government's official web portal to all federal, state and local government web resources and services.